sensor_id;sensor_type;location;lat;lon;timestamp;P1;durP1;ratioP1;P2;durP2;ratioP2
21513;SDS011;10918;48.102;11.636;2023-06-22T00:00:46;5.18;;;2.90;;
21513;SDS011;10918;48.102;11.636;2023-06-22T00:03:12;7.30;;;3.42;;
21513;SDS011;10918;48.102;11.636;2023-06-22T00:05:38;5.10;;;3.33;;
21513;SDS011;10918;48.102;11.636;2023-06-22T00:08:04;6.63;;;3.80;;
21513;SDS011;10918;48.102;11.636;2023-06-22T00:10:30;7.00;;;3.28;;
21513;SDS011;10918;48.102;11.636;2023-06-22T00:12:56;7.05;;;3.10;;
21513;SDS011;10918;48.102;11.636;2023-06-22T00:15:22;6.35;;;3.42;;
21513;SDS011;10918;48.102;11.636;2023-06-22T00:17:49;8.05;;;3.63;;
21513;SDS011;10918;48.102;11.636;2023-06-22T00:20:15;8.48;;;3.35;;
21513;SDS011;10918;48.102;11.636;2023-06-22T00:22:43;7.38;;;3.35;;
21513;SDS011;10918;48.102;11.636;2023-06-22T00:25:09;7.63;;;3.17;;
21513;SDS011;10918;48.102;11.636;2023-06-22T00:27:35;4.97;;;3.17;;
21513;SDS011;10918;48.102;11.636;2023-06-22T00:30:01;6.03;;;3.72;;
21513;SDS011;10918;48.102;11.636;2023-06-22T00:32:27;8.00;;;3.47;;
21513;SDS011;10918;48.102;11.636;2023-06-22T00:34:53;5.25;;;3.63;;
21513;SDS011;10918;48.102;11.636;2023-06-22T00:37:19;8.82;;;4.05;;
21513;SDS011;10918;48.102;11.636;2023-06-22T00:39:50;8.05;;;3.88;;
21513;SDS011;10918;48.102;11.636;2023-06-22T00:42:17;5.50;;;3.65;;
21513;SDS011;10918;48.102;11.636;2023-06-22T00:44:43;6.47;;;3.63;;
21513;SDS011;10918;48.102;11.636;2023-06-22T00:47:10;6.35;;;3.50;;
21513;SDS011;10918;48.102;11.636;2023-06-22T00:49:37;6.93;;;3.70;;
21513;SDS011;10918;48.102;11.636;2023-06-22T00:52:04;6.05;;;3.47;;
21513;SDS011;10918;48.102;11.636;2023-06-22T00:54:34;7.25;;;3.25;;
21513;SDS011;10918;48.102;11.636;2023-06-22T00:57:01;9.10;;;3.70;;
21513;SDS011;10918;48.102;11.636;2023-06-22T00:59:27;8.38;;;3.70;;
21513;SDS011;10918;48.102;11.636;2023-06-22T01:01:53;7.28;;;3.63;;
21513;SDS011;10918;48.102;11.636;2023-06-22T01:04:19;8.75;;;3.80;;
21513;SDS011;10918;48.102;11.636;2023-06-22T01:06:47;5.38;;;3.00;;
21513;SDS011;10918;48.102;11.636;2023-06-22T01:09:17;5.03;;;3.20;;
21513;SDS011;10918;48.102;11.636;2023-06-22T01:11:48;5.72;;;3.70;;
21513;SDS011;10918;48.102;11.636;2023-06-22T01:14:36;6.18;;;3.67;;
21513;SDS011;10918;48.102;11.636;2023-06-22T01:17:03;6.82;;;3.92;;
21513;SDS011;10918;48.102;11.636;2023-06-22T01:19:35;6.60;;;3.65;;
21513;SDS011;10918;48.102;11.636;2023-06-22T01:22:02;6.75;;;3.58;;
21513;SDS011;10918;48.102;11.636;2023-06-22T01:24:32;5.75;;;3.65;;
21513;SDS011;10918;48.102;11.636;2023-06-22T01:27:15;4.65;;;3.55;;
21513;SDS011;10918;48.102;11.636;2023-06-22T01:29:46;6.93;;;3.60;;
21513;SDS011;10918;48.102;11.636;2023-06-22T01:32:13;7.35;;;4.20;;
21513;SDS011;10918;48.102;11.636;2023-06-22T01:34:39;6.53;;;3.55;;
21513;SDS011;10918;48.102;11.636;2023-06-22T01:37:06;7.03;;;4.40;;
21513;SDS011;10918;48.102;11.636;2023-06-22T01:39:32;5.90;;;3.85;;
21513;SDS011;10918;48.102;11.636;2023-06-22T01:41:58;6.47;;;3.85;;
21513;SDS011;10918;48.102;11.636;2023-06-22T01:44:25;6.13;;;3.80;;
21513;SDS011;10918;48.102;11.636;2023-06-22T01:46:52;6.28;;;4.20;;
21513;SDS011;10918;48.102;11.636;2023-06-22T01:49:18;7.22;;;3.67;;
21513;SDS011;10918;48.102;11.636;2023-06-22T01:51:44;7.30;;;3.88;;
21513;SDS011;10918;48.102;11.636;2023-06-22T01:54:10;6.15;;;4.13;;
21513;SDS011;10918;48.102;11.636;2023-06-22T01:56:36;7.10;;;3.92;;
21513;SDS011;10918;48.102;11.636;2023-06-22T01:59:09;6.82;;;4.00;;
21513;SDS011;10918;48.102;11.636;2023-06-22T02:02:10;6.22;;;4.22;;
21513;SDS011;10918;48.102;11.636;2023-06-22T02:04:48;7.90;;;4.13;;
21513;SDS011;10918;48.102;11.636;2023-06-22T02:07:17;9.20;;;4.65;;
21513;SDS011;10918;48.102;11.636;2023-06-22T02:09:44;5.97;;;4.63;;
21513;SDS011;10918;48.102;11.636;2023-06-22T02:12:11;9.07;;;4.05;;
21513;SDS011;10918;48.102;11.636;2023-06-22T02:14:38;9.40;;;4.78;;
21513;SDS011;10918;48.102;11.636;2023-06-22T02:17:04;9.80;;;4.65;;
21513;SDS011;10918;48.102;11.636;2023-06-22T02:19:36;8.68;;;4.75;;
21513;SDS011;10918;48.102;11.636;2023-06-22T02:22:03;8.73;;;4.75;;
21513;SDS011;10918;48.102;11.636;2023-06-22T02:24:29;7.43;;;4.78;;
21513;SDS011;10918;48.102;11.636;2023-06-22T02:26:57;7.03;;;4.97;;
21513;SDS011;10918;48.102;11.636;2023-06-22T02:29:23;7.70;;;4.95;;
21513;SDS011;10918;48.102;11.636;2023-06-22T02:31:49;7.65;;;4.28;;
21513;SDS011;10918;48.102;11.636;2023-06-22T02:34:15;6.75;;;4.85;;
21513;SDS011;10918;48.102;11.636;2023-06-22T02:36:46;9.57;;;5.60;;
21513;SDS011;10918;48.102;11.636;2023-06-22T02:39:17;10.50;;;5.00;;
21513;SDS011;10918;48.102;11.636;2023-06-22T02:41:43;9.73;;;5.70;;
21513;SDS011;10918;48.102;11.636;2023-06-22T02:44:09;6.82;;;4.90;;
21513;SDS011;10918;48.102;11.636;2023-06-22T02:46:35;9.20;;;5.38;;
21513;SDS011;10918;48.102;11.636;2023-06-22T02:49:01;9.13;;;5.15;;
21513;SDS011;10918;48.102;11.636;2023-06-22T02:51:27;11.35;;;5.18;;
21513;SDS011;10918;48.102;11.636;2023-06-22T02:53:53;9.20;;;5.32;;
21513;SDS011;10918;48.102;11.636;2023-06-22T02:56:22;12.13;;;5.25;;
21513;SDS011;10918;48.102;11.636;2023-06-22T02:58:50;6.28;;;4.40;;
21513;SDS011;10918;48.102;11.636;2023-06-22T03:01:16;8.18;;;4.80;;
21513;SDS011;10918;48.102;11.636;2023-06-22T03:03:48;7.30;;;4.30;;
21513;SDS011;10918;48.102;11.636;2023-06-22T03:06:14;7.20;;;4.72;;
21513;SDS011;10918;48.102;11.636;2023-06-22T03:08:40;6.50;;;4.32;;
21513;SDS011;10918;48.102;11.636;2023-06-22T03:11:06;8.23;;;4.80;;
21513;SDS011;10918;48.102;11.636;2023-06-22T03:13:33;8.27;;;4.93;;
21513;SDS011;10918;48.102;11.636;2023-06-22T03:15:59;9.23;;;4.70;;
21513;SDS011;10918;48.102;11.636;2023-06-22T03:18:25;9.60;;;4.50;;
21513;SDS011;10918;48.102;11.636;2023-06-22T03:20:51;6.47;;;4.75;;
21513;SDS011;10918;48.102;11.636;2023-06-22T03:23:17;9.93;;;4.72;;
21513;SDS011;10918;48.102;11.636;2023-06-22T03:25:43;10.70;;;4.93;;
21513;SDS011;10918;48.102;11.636;2023-06-22T03:28:12;8.80;;;5.35;;
21513;SDS011;10918;48.102;11.636;2023-06-22T03:30:38;9.07;;;4.70;;
21513;SDS011;10918;48.102;11.636;2023-06-22T03:33:04;10.07;;;5.22;;
21513;SDS011;10918;48.102;11.636;2023-06-22T03:35:30;7.53;;;4.47;;
21513;SDS011;10918;48.102;11.636;2023-06-22T03:37:56;7.35;;;5.30;;
21513;SDS011;10918;48.102;11.636;2023-06-22T03:40:22;10.07;;;4.97;;
21513;SDS011;10918;48.102;11.636;2023-06-22T03:42:48;8.63;;;5.03;;
21513;SDS011;10918;48.102;11.636;2023-06-22T03:45:14;8.00;;;4.82;;
21513;SDS011;10918;48.102;11.636;2023-06-22T03:47:40;8.30;;;5.10;;
21513;SDS011;10918;48.102;11.636;2023-06-22T03:50:06;7.55;;;4.97;;
21513;SDS011;10918;48.102;11.636;2023-06-22T03:52:32;10.95;;;5.55;;
21513;SDS011;10918;48.102;11.636;2023-06-22T03:54:58;8.73;;;5.70;;
21513;SDS011;10918;48.102;11.636;2023-06-22T03:57:24;7.13;;;4.88;;
21513;SDS011;10918;48.102;11.636;2023-06-22T03:59:50;8.93;;;5.53;;
21513;SDS011;10918;48.102;11.636;2023-06-22T04:02:16;11.82;;;5.55;;
21513;SDS011;10918;48.102;11.636;2023-06-22T04:04:42;9.80;;;5.35;;
21513;SDS011;10918;48.102;11.636;2023-06-22T04:07:08;8.63;;;5.60;;
21513;SDS011;10918;48.102;11.636;2023-06-22T04:09:34;10.13;;;6.15;;
21513;SDS011;10918;48.102;11.636;2023-06-22T04:12:01;13.88;;;6.00;;
21513;SDS011;10918;48.102;11.636;2023-06-22T04:14:27;8.90;;;5.55;;
21513;SDS011;10918;48.102;11.636;2023-06-22T04:16:53;13.32;;;6.18;;
21513;SDS011;10918;48.102;11.636;2023-06-22T04:19:19;9.50;;;5.47;;
21513;SDS011;10918;48.102;11.636;2023-06-22T04:21:45;8.77;;;5.63;;
21513;SDS011;10918;48.102;11.636;2023-06-22T04:24:13;10.80;;;6.15;;
21513;SDS011;10918;48.102;11.636;2023-06-22T04:26:39;9.82;;;5.78;;
21513;SDS011;10918;48.102;11.636;2023-06-22T04:29:06;8.25;;;5.70;;
21513;SDS011;10918;48.102;11.636;2023-06-22T04:31:34;10.18;;;5.97;;
21513;SDS011;10918;48.102;11.636;2023-06-22T04:34:03;11.75;;;6.70;;
21513;SDS011;10918;48.102;11.636;2023-06-22T04:36:36;9.55;;;6.30;;
21513;SDS011;10918;48.102;11.636;2023-06-22T04:39:06;9.65;;;5.95;;
21513;SDS011;10918;48.102;11.636;2023-06-22T04:41:32;10.10;;;6.60;;
21513;SDS011;10918;48.102;11.636;2023-06-22T04:44:07;10.93;;;6.93;;
21513;SDS011;10918;48.102;11.636;2023-06-22T04:46:33;10.88;;;6.30;;
21513;SDS011;10918;48.102;11.636;2023-06-22T04:49:03;12.77;;;6.75;;
21513;SDS011;10918;48.102;11.636;2023-06-22T04:51:31;8.65;;;6.60;;
21513;SDS011;10918;48.102;11.636;2023-06-22T04:53:57;15.30;;;6.72;;
21513;SDS011;10918;48.102;11.636;2023-06-22T04:56:25;9.88;;;6.15;;
21513;SDS011;10918;48.102;11.636;2023-06-22T04:58:54;13.02;;;7.28;;
21513;SDS011;10918;48.102;11.636;2023-06-22T05:01:22;8.18;;;6.28;;
21513;SDS011;10918;48.102;11.636;2023-06-22T05:03:48;11.68;;;6.72;;
21513;SDS011;10918;48.102;11.636;2023-06-22T05:06:14;13.43;;;7.47;;
21513;SDS011;10918;48.102;11.636;2023-06-22T05:08:40;9.85;;;6.60;;
21513;SDS011;10918;48.102;11.636;2023-06-22T05:11:06;11.18;;;6.28;;
21513;SDS011;10918;48.102;11.636;2023-06-22T05:13:32;12.80;;;7.57;;
21513;SDS011;10918;48.102;11.636;2023-06-22T05:15:58;10.63;;;7.13;;
21513;SDS011;10918;48.102;11.636;2023-06-22T05:18:30;14.30;;;6.53;;
21513;SDS011;10918;48.102;11.636;2023-06-22T05:20:57;9.93;;;7.00;;
21513;SDS011;10918;48.102;11.636;2023-06-22T05:23:23;13.05;;;6.60;;
21513;SDS011;10918;48.102;11.636;2023-06-22T05:25:49;12.60;;;6.40;;
21513;SDS011;10918;48.102;11.636;2023-06-22T05:28:15;10.85;;;7.32;;
21513;SDS011;10918;48.102;11.636;2023-06-22T05:30:41;12.90;;;7.32;;
21513;SDS011;10918;48.102;11.636;2023-06-22T05:33:07;11.00;;;7.13;;
21513;SDS011;10918;48.102;11.636;2023-06-22T05:35:33;13.82;;;8.05;;
21513;SDS011;10918;48.102;11.636;2023-06-22T05:37:59;10.85;;;7.55;;
21513;SDS011;10918;48.102;11.636;2023-06-22T05:40:25;13.52;;;6.97;;
21513;SDS011;10918;48.102;11.636;2023-06-22T05:42:52;16.13;;;6.97;;
21513;SDS011;10918;48.102;11.636;2023-06-22T05:45:18;9.68;;;7.40;;
21513;SDS011;10918;48.102;11.636;2023-06-22T05:47:44;10.80;;;7.05;;
21513;SDS011;10918;48.102;11.636;2023-06-22T05:50:10;13.95;;;6.93;;
21513;SDS011;10918;48.102;11.636;2023-06-22T05:52:36;12.20;;;7.50;;
21513;SDS011;10918;48.102;11.636;2023-06-22T05:55:02;11.65;;;6.50;;
21513;SDS011;10918;48.102;11.636;2023-06-22T05:57:28;8.27;;;6.10;;
21513;SDS011;10918;48.102;11.636;2023-06-22T05:59:54;12.32;;;6.85;;
21513;SDS011;10918;48.102;11.636;2023-06-22T06:02:20;11.20;;;7.97;;
21513;SDS011;10918;48.102;11.636;2023-06-22T06:04:46;11.27;;;6.65;;
21513;SDS011;10918;48.102;11.636;2023-06-22T06:07:12;12.77;;;6.82;;
21513;SDS011;10918;48.102;11.636;2023-06-22T06:09:38;13.05;;;6.93;;
21513;SDS011;10918;48.102;11.636;2023-06-22T06:12:04;11.40;;;6.97;;
21513;SDS011;10918;48.102;11.636;2023-06-22T06:14:30;11.93;;;7.00;;
21513;SDS011;10918;48.102;11.636;2023-06-22T06:16:56;11.50;;;6.57;;
21513;SDS011;10918;48.102;11.636;2023-06-22T06:19:22;14.50;;;7.05;;
21513;SDS011;10918;48.102;11.636;2023-06-22T06:21:48;10.80;;;7.07;;
21513;SDS011;10918;48.102;11.636;2023-06-22T06:24:15;14.43;;;7.88;;
21513;SDS011;10918;48.102;11.636;2023-06-22T06:26:41;13.95;;;7.78;;
21513;SDS011;10918;48.102;11.636;2023-06-22T06:29:07;11.90;;;7.53;;
21513;SDS011;10918;48.102;11.636;2023-06-22T06:31:33;8.07;;;6.07;;
21513;SDS011;10918;48.102;11.636;2023-06-22T06:33:59;14.07;;;7.05;;
21513;SDS011;10918;48.102;11.636;2023-06-22T06:36:25;10.82;;;6.40;;
21513;SDS011;10918;48.102;11.636;2023-06-22T06:38:51;14.35;;;7.43;;
21513;SDS011;10918;48.102;11.636;2023-06-22T06:41:17;11.00;;;7.20;;
21513;SDS011;10918;48.102;11.636;2023-06-22T06:43:43;9.65;;;6.60;;
21513;SDS011;10918;48.102;11.636;2023-06-22T06:46:09;16.63;;;7.28;;
21513;SDS011;10918;48.102;11.636;2023-06-22T06:48:35;12.10;;;7.10;;
21513;SDS011;10918;48.102;11.636;2023-06-22T06:51:01;9.75;;;6.95;;
21513;SDS011;10918;48.102;11.636;2023-06-22T06:53:27;13.63;;;7.13;;
21513;SDS011;10918;48.102;11.636;2023-06-22T06:55:53;12.70;;;6.30;;
21513;SDS011;10918;48.102;11.636;2023-06-22T06:58:19;12.23;;;7.13;;
21513;SDS011;10918;48.102;11.636;2023-06-22T07:00:47;11.60;;;6.95;;
21513;SDS011;10918;48.102;11.636;2023-06-22T07:03:13;11.40;;;7.05;;
21513;SDS011;10918;48.102;11.636;2023-06-22T07:05:39;12.57;;;7.03;;
21513;SDS011;10918;48.102;11.636;2023-06-22T07:08:05;11.52;;;6.90;;
21513;SDS011;10918;48.102;11.636;2023-06-22T07:10:31;12.30;;;7.00;;
21513;SDS011;10918;48.102;11.636;2023-06-22T07:12:57;14.07;;;7.15;;
21513;SDS011;10918;48.102;11.636;2023-06-22T07:15:23;11.85;;;6.90;;
21513;SDS011;10918;48.102;11.636;2023-06-22T07:17:50;10.60;;;6.90;;
21513;SDS011;10918;48.102;11.636;2023-06-22T07:20:16;11.85;;;6.97;;
21513;SDS011;10918;48.102;11.636;2023-06-22T07:22:42;12.65;;;6.93;;
21513;SDS011;10918;48.102;11.636;2023-06-22T07:25:09;11.98;;;7.50;;
21513;SDS011;10918;48.102;11.636;2023-06-22T07:27:39;10.57;;;6.53;;
21513;SDS011;10918;48.102;11.636;2023-06-22T07:30:08;10.32;;;7.15;;
21513;SDS011;10918;48.102;11.636;2023-06-22T07:32:34;9.30;;;6.65;;
21513;SDS011;10918;48.102;11.636;2023-06-22T07:35:01;12.73;;;6.43;;
21513;SDS011;10918;48.102;11.636;2023-06-22T07:37:27;13.77;;;6.72;;
21513;SDS011;10918;48.102;11.636;2023-06-22T07:39:54;15.05;;;6.95;;
21513;SDS011;10918;48.102;11.636;2023-06-22T07:42:24;12.48;;;7.10;;
21513;SDS011;10918;48.102;11.636;2023-06-22T07:44:50;12.45;;;6.95;;
21513;SDS011;10918;48.102;11.636;2023-06-22T07:47:16;9.43;;;6.32;;
21513;SDS011;10918;48.102;11.636;2023-06-22T07:49:45;12.38;;;6.80;;
21513;SDS011;10918;48.102;11.636;2023-06-22T07:52:11;9.82;;;6.68;;
21513;SDS011;10918;48.102;11.636;2023-06-22T07:54:37;12.20;;;6.88;;
21513;SDS011;10918;48.102;11.636;2023-06-22T07:57:04;9.90;;;6.38;;
21513;SDS011;10918;48.102;11.636;2023-06-22T07:59:30;12.57;;;6.82;;
21513;SDS011;10918;48.102;11.636;2023-06-22T08:01:56;13.70;;;6.82;;
21513;SDS011;10918;48.102;11.636;2023-06-22T08:04:22;10.57;;;7.03;;
21513;SDS011;10918;48.102;11.636;2023-06-22T08:06:48;13.95;;;7.32;;
21513;SDS011;10918;48.102;11.636;2023-06-22T08:09:14;14.27;;;6.65;;
21513;SDS011;10918;48.102;11.636;2023-06-22T08:11:40;12.50;;;6.78;;
21513;SDS011;10918;48.102;11.636;2023-06-22T08:14:06;11.90;;;6.68;;
21513;SDS011;10918;48.102;11.636;2023-06-22T08:16:32;10.15;;;6.47;;
21513;SDS011;10918;48.102;11.636;2023-06-22T08:18:58;17.50;;;6.80;;
21513;SDS011;10918;48.102;11.636;2023-06-22T08:21:24;15.55;;;6.90;;
21513;SDS011;10918;48.102;11.636;2023-06-22T08:23:50;11.63;;;6.38;;
21513;SDS011;10918;48.102;11.636;2023-06-22T08:26:15;12.02;;;6.00;;
21513;SDS011;10918;48.102;11.636;2023-06-22T08:28:42;14.02;;;7.00;;
21513;SDS011;10918;48.102;11.636;2023-06-22T08:31:08;12.13;;;6.40;;
21513;SDS011;10918;48.102;11.636;2023-06-22T08:33:33;10.63;;;5.97;;
21513;SDS011;10918;48.102;11.636;2023-06-22T08:35:59;10.57;;;6.20;;
21513;SDS011;10918;48.102;11.636;2023-06-22T08:38:25;11.52;;;7.88;;
21513;SDS011;10918;48.102;11.636;2023-06-22T08:40:52;15.43;;;9.75;;
21513;SDS011;10918;48.102;11.636;2023-06-22T08:43:17;9.05;;;6.43;;
21513;SDS011;10918;48.102;11.636;2023-06-22T08:45:43;12.48;;;6.65;;
21513;SDS011;10918;48.102;11.636;2023-06-22T08:48:09;10.88;;;6.30;;
21513;SDS011;10918;48.102;11.636;2023-06-22T08:50:35;10.90;;;6.25;;
21513;SDS011;10918;48.102;11.636;2023-06-22T08:53:01;11.20;;;6.30;;
21513;SDS011;10918;48.102;11.636;2023-06-22T08:55:27;12.30;;;6.82;;
21513;SDS011;10918;48.102;11.636;2023-06-22T08:57:53;13.02;;;7.07;;
21513;SDS011;10918;48.102;11.636;2023-06-22T09:00:19;13.75;;;6.70;;
21513;SDS011;10918;48.102;11.636;2023-06-22T09:02:46;12.38;;;6.32;;
21513;SDS011;10918;48.102;11.636;2023-06-22T09:05:12;19.73;;;14.23;;
21513;SDS011;10918;48.102;11.636;2023-06-22T09:07:39;15.50;;;9.18;;
21513;SDS011;10918;48.102;11.636;2023-06-22T09:10:05;10.35;;;7.13;;
21513;SDS011;10918;48.102;11.636;2023-06-22T09:12:31;13.13;;;6.47;;
21513;SDS011;10918;48.102;11.636;2023-06-22T09:14:58;15.55;;;6.20;;
21513;SDS011;10918;48.102;11.636;2023-06-22T09:17:27;11.50;;;6.70;;
21513;SDS011;10918;48.102;11.636;2023-06-22T09:19:53;11.40;;;6.43;;
21513;SDS011;10918;48.102;11.636;2023-06-22T09:22:20;13.88;;;6.63;;
21513;SDS011;10918;48.102;11.636;2023-06-22T09:24:46;10.40;;;6.38;;
21513;SDS011;10918;48.102;11.636;2023-06-22T09:27:12;13.13;;;6.85;;
21513;SDS011;10918;48.102;11.636;2023-06-22T09:29:38;10.93;;;6.70;;
21513;SDS011;10918;48.102;11.636;2023-06-22T09:32:04;11.27;;;6.18;;
21513;SDS011;10918;48.102;11.636;2023-06-22T09:34:30;11.85;;;6.15;;
21513;SDS011;10918;48.102;11.636;2023-06-22T09:36:56;8.25;;;5.72;;
21513;SDS011;10918;48.102;11.636;2023-06-22T09:39:25;11.45;;;6.10;;
21513;SDS011;10918;48.102;11.636;2023-06-22T09:41:51;12.85;;;7.10;;
21513;SDS011;10918;48.102;11.636;2023-06-22T09:44:17;11.80;;;6.65;;
21513;SDS011;10918;48.102;11.636;2023-06-22T09:46:46;12.13;;;6.18;;
21513;SDS011;10918;48.102;11.636;2023-06-22T09:49:12;12.32;;;6.50;;
21513;SDS011;10918;48.102;11.636;2023-06-22T09:51:38;11.60;;;6.20;;
21513;SDS011;10918;48.102;11.636;2023-06-22T09:54:04;11.75;;;6.78;;
21513;SDS011;10918;48.102;11.636;2023-06-22T09:56:30;9.70;;;6.60;;
21513;SDS011;10918;48.102;11.636;2023-06-22T09:58:56;10.05;;;6.00;;
21513;SDS011;10918;48.102;11.636;2023-06-22T10:01:22;12.23;;;6.28;;
21513;SDS011;10918;48.102;11.636;2023-06-22T10:03:49;13.05;;;6.40;;
21513;SDS011;10918;48.102;11.636;2023-06-22T10:06:15;15.07;;;6.68;;
21513;SDS011;10918;48.102;11.636;2023-06-22T10:08:41;14.88;;;6.78;;
21513;SDS011;10918;48.102;11.636;2023-06-22T10:11:07;10.38;;;6.57;;
21513;SDS011;10918;48.102;11.636;2023-06-22T10:13:33;10.38;;;5.47;;
21513;SDS011;10918;48.102;11.636;2023-06-22T10:15:59;9.02;;;6.18;;
21513;SDS011;10918;48.102;11.636;2023-06-22T10:18:25;13.35;;;6.82;;
21513;SDS011;10918;48.102;11.636;2023-06-22T10:20:51;10.93;;;7.13;;
21513;SDS011;10918;48.102;11.636;2023-06-22T10:23:20;9.05;;;6.15;;
21513;SDS011;10918;48.102;11.636;2023-06-22T10:25:46;9.95;;;5.85;;
21513;SDS011;10918;48.102;11.636;2023-06-22T10:28:12;9.60;;;6.60;;
21513;SDS011;10918;48.102;11.636;2023-06-22T10:30:39;12.05;;;6.13;;
21513;SDS011;10918;48.102;11.636;2023-06-22T10:33:08;9.90;;;6.22;;
21513;SDS011;10918;48.102;11.636;2023-06-22T10:35:34;10.15;;;5.72;;
21513;SDS011;10918;48.102;11.636;2023-06-22T10:38:00;12.45;;;6.45;;
21513;SDS011;10918;48.102;11.636;2023-06-22T10:40:26;12.48;;;6.15;;
21513;SDS011;10918;48.102;11.636;2023-06-22T10:42:52;12.18;;;6.03;;
21513;SDS011;10918;48.102;11.636;2023-06-22T10:45:18;11.25;;;6.05;;
21513;SDS011;10918;48.102;11.636;2023-06-22T10:47:44;8.48;;;5.85;;
21513;SDS011;10918;48.102;11.636;2023-06-22T10:50:10;10.82;;;5.90;;
21513;SDS011;10918;48.102;11.636;2023-06-22T10:52:36;11.75;;;5.85;;
21513;SDS011;10918;48.102;11.636;2023-06-22T10:55:03;10.23;;;5.93;;
21513;SDS011;10918;48.102;11.636;2023-06-22T10:57:29;12.95;;;6.20;;
21513;SDS011;10918;48.102;11.636;2023-06-22T10:59:55;14.25;;;5.18;;
21513;SDS011;10918;48.102;11.636;2023-06-22T11:02:21;8.52;;;5.38;;
21513;SDS011;10918;48.102;11.636;2023-06-22T11:04:46;11.50;;;5.78;;
21513;SDS011;10918;48.102;11.636;2023-06-22T11:07:12;12.02;;;5.72;;
21513;SDS011;10918;48.102;11.636;2023-06-22T11:09:38;11.10;;;6.05;;
21513;SDS011;10918;48.102;11.636;2023-06-22T11:12:05;12.18;;;5.88;;
21513;SDS011;10918;48.102;11.636;2023-06-22T11:14:31;10.82;;;6.28;;
21513;SDS011;10918;48.102;11.636;2023-06-22T11:16:58;11.32;;;6.38;;
21513;SDS011;10918;48.102;11.636;2023-06-22T11:19:24;12.38;;;5.95;;
21513;SDS011;10918;48.102;11.636;2023-06-22T11:21:50;13.88;;;6.25;;
21513;SDS011;10918;48.102;11.636;2023-06-22T11:24:16;10.93;;;6.00;;
21513;SDS011;10918;48.102;11.636;2023-06-22T11:26:42;12.35;;;5.50;;
21513;SDS011;10918;48.102;11.636;2023-06-22T11:29:08;12.05;;;5.70;;
21513;SDS011;10918;48.102;11.636;2023-06-22T11:31:35;11.10;;;6.13;;
21513;SDS011;10918;48.102;11.636;2023-06-22T11:34:01;15.35;;;6.43;;
21513;SDS011;10918;48.102;11.636;2023-06-22T11:36:27;10.45;;;6.10;;
21513;SDS011;10918;48.102;11.636;2023-06-22T11:38:54;12.50;;;6.15;;
21513;SDS011;10918;48.102;11.636;2023-06-22T11:41:20;11.60;;;6.35;;
21513;SDS011;10918;48.102;11.636;2023-06-22T11:43:46;13.85;;;6.60;;
21513;SDS011;10918;48.102;11.636;2023-06-22T11:46:12;9.82;;;5.50;;
21513;SDS011;10918;48.102;11.636;2023-06-22T11:48:38;11.90;;;5.97;;
21513;SDS011;10918;48.102;11.636;2023-06-22T11:51:04;14.00;;;6.50;;
21513;SDS011;10918;48.102;11.636;2023-06-22T11:53:31;14.23;;;6.38;;
21513;SDS011;10918;48.102;11.636;2023-06-22T11:55:57;14.48;;;7.18;;
21513;SDS011;10918;48.102;11.636;2023-06-22T11:58:24;11.38;;;5.70;;
21513;SDS011;10918;48.102;11.636;2023-06-22T12:00:50;13.02;;;6.72;;
21513;SDS011;10918;48.102;11.636;2023-06-22T12:03:17;13.00;;;6.50;;
21513;SDS011;10918;48.102;11.636;2023-06-22T12:05:43;15.38;;;6.90;;
21513;SDS011;10918;48.102;11.636;2023-06-22T12:08:09;11.90;;;6.25;;
21513;SDS011;10918;48.102;11.636;2023-06-22T12:10:35;17.98;;;6.72;;
21513;SDS011;10918;48.102;11.636;2023-06-22T12:13:01;12.73;;;6.78;;
21513;SDS011;10918;48.102;11.636;2023-06-22T12:15:27;12.52;;;6.25;;
21513;SDS011;10918;48.102;11.636;2023-06-22T12:17:53;10.77;;;5.90;;
21513;SDS011;10918;48.102;11.636;2023-06-22T12:20:19;10.88;;;5.78;;
21513;SDS011;10918;48.102;11.636;2023-06-22T12:22:45;11.77;;;6.80;;
21513;SDS011;10918;48.102;11.636;2023-06-22T12:25:12;10.70;;;6.28;;
21513;SDS011;10918;48.102;11.636;2023-06-22T12:27:38;9.88;;;5.70;;
21513;SDS011;10918;48.102;11.636;2023-06-22T12:30:04;11.23;;;5.97;;
21513;SDS011;10918;48.102;11.636;2023-06-22T12:32:30;13.68;;;6.15;;
21513;SDS011;10918;48.102;11.636;2023-06-22T12:34:56;11.73;;;5.80;;
21513;SDS011;10918;48.102;11.636;2023-06-22T12:37:23;11.68;;;6.50;;
21513;SDS011;10918;48.102;11.636;2023-06-22T12:39:49;16.55;;;6.15;;
21513;SDS011;10918;48.102;11.636;2023-06-22T12:42:15;12.57;;;6.18;;
21513;SDS011;10918;48.102;11.636;2023-06-22T12:44:41;12.70;;;6.05;;
21513;SDS011;10918;48.102;11.636;2023-06-22T12:47:08;8.98;;;5.65;;
21513;SDS011;10918;48.102;11.636;2023-06-22T12:49:34;14.23;;;6.18;;
21513;SDS011;10918;48.102;11.636;2023-06-22T12:52:01;13.00;;;6.28;;
21513;SDS011;10918;48.102;11.636;2023-06-22T12:54:27;10.23;;;5.68;;
21513;SDS011;10918;48.102;11.636;2023-06-22T12:56:56;16.73;;;9.40;;
21513;SDS011;10918;48.102;11.636;2023-06-22T12:59:22;11.52;;;6.20;;
21513;SDS011;10918;48.102;11.636;2023-06-22T13:01:48;16.42;;;5.82;;
21513;SDS011;10918;48.102;11.636;2023-06-22T13:04:14;9.02;;;5.07;;
21513;SDS011;10918;48.102;11.636;2023-06-22T13:06:43;11.45;;;6.25;;
21513;SDS011;10918;48.102;11.636;2023-06-22T13:09:12;11.30;;;6.00;;
21513;SDS011;10918;48.102;11.636;2023-06-22T13:11:38;14.18;;;6.20;;
21513;SDS011;10918;48.102;11.636;2023-06-22T13:14:04;9.73;;;6.00;;
21513;SDS011;10918;48.102;11.636;2023-06-22T13:16:30;10.13;;;6.18;;
21513;SDS011;10918;48.102;11.636;2023-06-22T13:18:56;9.02;;;6.70;;
21513;SDS011;10918;48.102;11.636;2023-06-22T13:21:22;10.30;;;5.75;;
21513;SDS011;10918;48.102;11.636;2023-06-22T13:23:48;11.95;;;5.90;;
21513;SDS011;10918;48.102;11.636;2023-06-22T13:26:14;12.40;;;6.00;;
21513;SDS011;10918;48.102;11.636;2023-06-22T13:28:40;9.05;;;5.63;;
21513;SDS011;10918;48.102;11.636;2023-06-22T13:31:06;12.63;;;6.07;;
21513;SDS011;10918;48.102;11.636;2023-06-22T13:33:32;12.73;;;6.10;;
21513;SDS011;10918;48.102;11.636;2023-06-22T13:35:58;14.07;;;6.20;;
21513;SDS011;10918;48.102;11.636;2023-06-22T13:38:24;11.98;;;6.15;;
21513;SDS011;10918;48.102;11.636;2023-06-22T13:40:50;15.40;;;6.05;;
21513;SDS011;10918;48.102;11.636;2023-06-22T13:43:16;9.63;;;5.68;;
21513;SDS011;10918;48.102;11.636;2023-06-22T13:45:42;11.80;;;5.65;;
21513;SDS011;10918;48.102;11.636;2023-06-22T13:48:08;11.57;;;6.10;;
21513;SDS011;10918;48.102;11.636;2023-06-22T13:50:34;10.50;;;5.43;;
21513;SDS011;10918;48.102;11.636;2023-06-22T13:53:00;10.82;;;6.00;;
21513;SDS011;10918;48.102;11.636;2023-06-22T13:55:26;15.38;;;6.80;;
21513;SDS011;10918;48.102;11.636;2023-06-22T13:57:52;10.25;;;5.50;;
21513;SDS011;10918;48.102;11.636;2023-06-22T14:00:18;12.00;;;6.40;;
21513;SDS011;10918;48.102;11.636;2023-06-22T14:02:44;12.20;;;5.80;;
21513;SDS011;10918;48.102;11.636;2023-06-22T14:05:10;12.60;;;6.18;;
21513;SDS011;10918;48.102;11.636;2023-06-22T14:07:37;11.23;;;6.63;;
21513;SDS011;10918;48.102;11.636;2023-06-22T14:10:03;11.43;;;5.68;;
21513;SDS011;10918;48.102;11.636;2023-06-22T14:12:29;9.90;;;5.53;;
21513;SDS011;10918;48.102;11.636;2023-06-22T14:14:55;14.05;;;6.03;;
21513;SDS011;10918;48.102;11.636;2023-06-22T14:17:22;12.30;;;5.55;;
21513;SDS011;10918;48.102;11.636;2023-06-22T14:19:50;10.20;;;5.55;;
21513;SDS011;10918;48.102;11.636;2023-06-22T14:22:20;10.38;;;5.95;;